Time,TemperatureF,DewpointF,PressureIn,WindDirection,WindDirectionDegrees,WindSpeedMPH,WindSpeedGustMPH,Humidity,HourlyPrecipIn,Conditions,Clouds,dailyrainin,SoftwareType,DateUTC
2013-12-02 00:00:00,34.4,30.4,29.99,North,-999,0.0,0.0,85,0.00,,,-99.99,WeatherLink 5.5,2013-12-02 05:00:00,
2013-12-02 00:05:00,34.4,30.4,29.99,North,-999,0.0,0.0,85,0.00,,,-99.99,WeatherLink 5.5,2013-12-02 05:05:00,
2013-12-02 00:10:00,34.4,30.4,29.99,North,-999,0.0,0.0,85,0.00,,,-99.99,WeatherLink 5.5,2013-12-02 05:10:00,
2013-12-02 00:15:00,34.4,30.4,29.99,North,-999,0.0,0.0,85,0.00,,,-99.99,WeatherLink 5.5,2013-12-02 05:15:00,
2013-12-02 00:20:00,34.4,30.4,29.98,WNW,292,0.0,2.0,85,0.00,,,-99.99,WeatherLink 5.5,2013-12-02 05:20:00,
2013-12-02 00:25:00,34.4,30.4,29.98,North,-999,0.0,0.0,85,0.00,,,-99.99,WeatherLink 5.5,2013-12-02 05:25:00,
2013-12-02 00:30:00,34.4,30.4,29.98,North,-999,0.0,0.0,85,0.00,,,-99.99,WeatherLink 5.5,2013-12-02 05:30:00,
2013-12-02 00:35:00,34.4,30.4,29.98,North,-999,0.0,0.0,85,0.00,,,-99.99,WeatherLink 5.5,2013-12-02 05:35:00,
2013-12-02 00:40:00,34.4,30.4,29.98,North,-999,0.0,0.0,85,0.00,,,-99.99,WeatherLink 5.5,2013-12-02 05:40:00,
2013-12-02 00:45:00,34.4,30.4,29.98,North,-999,0.0,0.0,85,0.00,,,-99.99,WeatherLink 5.5,2013-12-02 05:45:00,
2013-12-02 00:50:00,34.4,30.4,29.98,North,-999,0.0,0.0,85,0.00,,,-99.99,WeatherLink 5.5,2013-12-02 05:50:00,
2013-12-02 00:55:00,34.4,30.4,29.98,WNW,292,0.0,2.0,85,0.00,,,-99.99,WeatherLink 5.5,2013-12-02 05:55:00,
2013-12-02 01:00:00,34.4,30.4,29.98,WNW,292,0.0,2.0,85,0.00,,,-99.99,WeatherLink 5.5,2013-12-02 06:00:00,
2013-12-02 01:05:00,34.4,30.4,29.98,WNW,292,0.0,2.0,85,0.00,,,-99.99,WeatherLink 5.5,2013-12-02 06:05:00,
2013-12-02 01:10:00,34.4,30.4,29.98,WNW,292,0.0,1.0,85,0.00,,,-99.99,WeatherLink 5.5,2013-12-02 06:10:00,
2013-12-02 01:15:00,34.4,30.4,29.98,WNW,292,0.0,1.0,85,0.00,,,-99.99,WeatherLink 5.5,2013-12-02 06:15:00,
2013-12-02 01:20:00,34.6,30.6,29.98,WNW,292,0.0,2.0,85,0.00,,,-99.99,WeatherLink 5.5,2013-12-02 06:20:00,
2013-12-02 01:25:00,34.6,30.6,29.98,North,-999,0.0,0.0,85,0.00,,,-99.99,WeatherLink 5.5,2013-12-02 06:25:00,
2013-12-02 01:30:00,34.6,30.6,29.98,North,-999,0.0,0.0,85,0.00,,,-99.99,WeatherLink 5.5,2013-12-02 06:30:00,
2013-12-02 01:35:00,34.7,30.7,29.98,WNW,292,0.0,2.0,85,0.00,,,-99.99,WeatherLink 5.5,2013-12-02 06:35:00,
2013-12-02 01:40:00,34.7,30.7,29.98,WNW,292,0.0,2.0,85,0.00,,,-99.99,WeatherLink 5.5,2013-12-02 06:40:00,
2013-12-02 01:45:00,34.7,30.7,29.98,WNW,292,0.0,2.0,85,0.00,,,-99.99,WeatherLink 5.5,2013-12-02 06:45:00,
2013-12-02 01:50:00,34.7,30.7,29.98,WNW,292,0.0,2.0,85,0.00,,,-99.99,WeatherLink 5.5,2013-12-02 06:50:00,
2013-12-02 01:55:00,34.7,30.7,29.98,WNW,292,0.0,1.0,85,0.00,,,-99.99,WeatherLink 5.5,2013-12-02 06:55:00,
2013-12-02 02:00:00,34.7,30.7,29.98,North,-999,0.0,0.0,85,0.00,,,-99.99,WeatherLink 5.5,2013-12-02 07:00:00,
2013-12-02 02:05:00,34.7,30.7,29.98,North,-999,0.0,0.0,85,0.00,,,-99.99,WeatherLink 5.5,2013-12-02 07:05:00,
2013-12-02 02:10:00,34.7,30.7,29.98,WNW,292,0.0,1.0,85,0.00,,,-99.99,WeatherLink 5.5,2013-12-02 07:10:00,
2013-12-02 02:15:00,34.7,30.7,29.98,WNW,292,0.0,1.0,85,0.00,,,-99.99,WeatherLink 5.5,2013-12-02 07:15:00,
2013-12-02 02:20:00,34.9,31.1,29.98,WNW,292,0.0,2.0,86,0.00,,,-99.99,WeatherLink 5.5,2013-12-02 07:20:00,
2013-12-02 02:25:00,34.9,30.8,29.98,North,-999,0.0,0.0,85,0.00,,,-99.99,WeatherLink 5.5,2013-12-02 07:25:00,
2013-12-02 02:30:00,34.9,30.8,29.98,North,-999,0.0,0.0,85,0.00,,,-99.99,WeatherLink 5.5,2013-12-02 07:30:00,
2013-12-02 02:35:00,34.9,31.1,29.98,North,-999,0.0,0.0,86,0.00,,,-99.99,WeatherLink 5.5,2013-12-02 07:35:00,
2013-12-02 02:40:00,34.7,30.7,29.98,North,-999,0.0,0.0,85,0.00,,,-99.99,WeatherLink 5.5,2013-12-02 07:40:00,
2013-12-02 02:45:00,34.7,30.7,29.98,North,-999,0.0,0.0,85,0.00,,,-99.99,WeatherLink 5.5,2013-12-02 07:45:00,
2013-12-02 02:50:00,34.7,30.9,29.98,North,-999,0.0,0.0,86,0.00,,,-99.99,WeatherLink 5.5,2013-12-02 07:50:00,
2013-12-02 02:55:00,34.7,30.9,29.98,WNW,292,0.0,2.0,86,0.00,,,-99.99,WeatherLink 5.5,2013-12-02 07:55:00,
2013-12-02 03:00:00,34.7,30.9,29.98,WNW,292,0.0,2.0,86,0.00,,,-99.99,WeatherLink 5.5,2013-12-02 08:00:00,
2013-12-02 03:05:00,34.9,31.1,29.97,North,-999,0.0,0.0,86,0.00,,,-99.99,WeatherLink 5.5,2013-12-02 08:05:00,
2013-12-02 03:10:00,34.9,31.1,29.97,WNW,292,0.0,1.0,86,0.00,,,-99.99,WeatherLink 5.5,2013-12-02 08:10:00,
2013-12-02 03:15:00,34.9,31.1,29.97,WNW,292,0.0,1.0,86,0.00,,,-99.99,WeatherLink 5.5,2013-12-02 08:15:00,
2013-12-02 03:20:00,34.9,31.1,29.97,North,-999,0.0,0.0,86,0.00,,,-99.99,WeatherLink 5.5,2013-12-02 08:20:00,
2013-12-02 03:25:00,34.7,30.9,29.97,North,-999,0.0,0.0,86,0.00,,,-99.99,WeatherLink 5.5,2013-12-02 08:25:00,
2013-12-02 03:30:00,34.7,30.9,29.97,North,-999,0.0,0.0,86,0.00,,,-99.99,WeatherLink 5.5,2013-12-02 08:30:00,
2013-12-02 03:35:00,34.7,30.9,29.96,WNW,292,0.0,1.0,86,0.00,,,-99.99,WeatherLink 5.5,2013-12-02 08:35:00,
2013-12-02 03:40:00,34.7,30.9,29.96,North,-999,0.0,0.0,86,0.00,,,-99.99,WeatherLink 5.5,2013-12-02 08:40:00,
2013-12-02 03:45:00,34.7,30.9,29.96,North,-999,0.0,0.0,86,0.00,,,-99.99,WeatherLink 5.5,2013-12-02 08:45:00,
2013-12-02 03:50:00,34.7,30.9,29.96,WNW,292,0.0,1.0,86,0.00,,,-99.99,WeatherLink 5.5,2013-12-02 08:50:00,
2013-12-02 03:55:00,34.7,30.9,29.96,West,270,1.0,4.0,86,0.00,,,-99.99,WeatherLink 5.5,2013-12-02 08:55:00,
2013-12-02 04:00:00,34.7,30.9,29.96,West,270,1.0,4.0,86,0.00,,,-99.99,WeatherLink 5.5,2013-12-02 09:00:00,
2013-12-02 04:05:00,34.9,31.1,29.96,West,270,0.0,1.0,86,0.00,,,-99.99,WeatherLink 5.5,2013-12-02 09:05:00,
2013-12-02 04:10:00,34.9,31.1,29.96,West,270,0.0,1.0,86,0.00,,,-99.99,WeatherLink 5.5,2013-12-02 09:10:00,
2013-12-02 04:15:00,34.9,31.1,29.96,West,270,0.0,1.0,86,0.00,,,-99.99,WeatherLink 5.5,2013-12-02 09:15:00,
2013-12-02 04:20:00,34.9,31.1,29.97,North,-999,0.0,0.0,86,0.00,,,-99.99,WeatherLink 5.5,2013-12-02 09:20:00,
2013-12-02 04:25:00,34.9,31.1,29.97,North,-999,0.0,0.0,86,0.00,,,-99.99,WeatherLink 5.5,2013-12-02 09:25:00,
2013-12-02 04:30:00,34.9,31.1,29.97,North,-999,0.0,0.0,86,0.00,,,-99.99,WeatherLink 5.5,2013-12-02 09:30:00,
2013-12-02 04:35:00,34.9,31.1,29.96,North,-999,0.0,0.0,86,0.00,,,-99.99,WeatherLink 5.5,2013-12-02 09:35:00,
2013-12-02 04:40:00,34.9,31.1,29.96,North,-999,0.0,0.0,86,0.00,,,-99.99,WeatherLink 5.5,2013-12-02 09:40:00,
2013-12-02 04:45:00,34.9,31.1,29.96,North,-999,0.0,0.0,86,0.00,,,-99.99,WeatherLink 5.5,2013-12-02 09:45:00,
2013-12-02 04:50:00,34.9,31.1,29.95,West,270,0.0,2.0,86,0.00,,,-99.99,WeatherLink 5.5,2013-12-02 09:50:00,
2013-12-02 04:55:00,34.9,31.1,29.95,West,270,0.0,1.0,86,0.00,,,-99.99,WeatherLink 5.5,2013-12-02 09:55:00,
2013-12-02 05:00:00,34.9,31.1,29.95,West,270,0.0,1.0,86,0.00,,,-99.99,WeatherLink 5.5,2013-12-02 10:00:00,
2013-12-02 05:05:00,34.9,31.1,29.96,North,-999,0.0,0.0,86,0.00,,,-99.99,WeatherLink 5.5,2013-12-02 10:05:00,
2013-12-02 05:10:00,34.9,31.1,29.96,North,-999,0.0,0.0,86,0.00,,,-99.99,WeatherLink 5.5,2013-12-02 10:10:00,
2013-12-02 05:15:00,34.9,31.1,29.96,North,-999,0.0,0.0,86,0.00,,,-99.99,WeatherLink 5.5,2013-12-02 10:15:00,
2013-12-02 05:20:00,34.9,31.1,29.96,North,-999,0.0,0.0,86,0.00,,,-99.99,WeatherLink 5.5,2013-12-02 10:20:00,
2013-12-02 05:25:00,34.9,31.1,29.96,West,270,0.0,1.0,86,0.00,,,-99.99,WeatherLink 5.5,2013-12-02 10:25:00,
2013-12-02 05:30:00,34.9,31.1,29.96,West,270,0.0,1.0,86,0.00,,,-99.99,WeatherLink 5.5,2013-12-02 10:30:00,
2013-12-02 05:35:00,34.9,31.1,29.95,WNW,292,0.0,2.0,86,0.00,,,-99.99,WeatherLink 5.5,2013-12-02 10:35:00,
2013-12-02 05:40:00,34.9,31.1,29.95,NW,315,0.0,1.0,86,0.00,,,-99.99,WeatherLink 5.5,2013-12-02 10:40:00,
2013-12-02 05:45:00,34.9,31.1,29.95,NW,315,0.0,1.0,86,0.00,,,-99.99,WeatherLink 5.5,2013-12-02 10:45:00,
2013-12-02 05:50:00,34.9,31.1,29.95,North,-999,0.0,0.0,86,0.00,,,-99.99,WeatherLink 5.5,2013-12-02 10:50:00,
2013-12-02 05:55:00,34.9,31.1,29.95,North,-999,0.0,0.0,86,0.00,,,-99.99,WeatherLink 5.5,2013-12-02 10:55:00,
2013-12-02 06:00:00,34.9,31.1,29.95,North,-999,0.0,0.0,86,0.00,,,-99.99,WeatherLink 5.5,2013-12-02 11:00:00,
2013-12-02 06:05:00,34.7,30.9,29.96,North,-999,0.0,0.0,86,0.00,,,-99.99,WeatherLink 5.5,2013-12-02 11:05:00,
2013-12-02 06:10:00,34.7,30.9,29.96,North,-999,0.0,0.0,86,0.00,,,-99.99,WeatherLink 5.5,2013-12-02 11:10:00,
2013-12-02 06:15:00,34.7,30.9,29.96,North,-999,0.0,0.0,86,0.00,,,-99.99,WeatherLink 5.5,2013-12-02 11:15:00,
2013-12-02 06:20:00,34.7,30.9,29.96,North,-999,0.0,0.0,86,0.00,,,-99.99,WeatherLink 5.5,2013-12-02 11:20:00,
2013-12-02 06:25:00,34.7,30.9,29.96,North,-999,0.0,0.0,86,0.00,,,-99.99,WeatherLink 5.5,2013-12-02 11:25:00,
2013-12-02 06:30:00,34.7,30.9,29.96,North,-999,0.0,0.0,86,0.00,,,-99.99,WeatherLink 5.5,2013-12-02 11:30:00,
2013-12-02 06:35:00,34.7,30.9,29.96,North,-999,0.0,0.0,86,0.00,,,-99.99,WeatherLink 5.5,2013-12-02 11:35:00,
2013-12-02 06:40:00,34.7,30.9,29.96,North,-999,0.0,0.0,86,0.00,,,-99.99,WeatherLink 5.5,2013-12-02 11:40:00,
2013-12-02 06:45:00,34.7,30.9,29.96,North,-999,0.0,0.0,86,0.00,,,-99.99,WeatherLink 5.5,2013-12-02 11:45:00,
2013-12-02 06:50:00,34.7,30.9,29.96,North,-999,0.0,0.0,86,0.00,,,-99.99,WeatherLink 5.5,2013-12-02 11:50:00,
2013-12-02 06:55:00,34.7,30.9,29.96,North,-999,0.0,0.0,86,0.00,,,-99.99,WeatherLink 5.5,2013-12-02 11:55:00,
2013-12-02 07:00:00,34.7,30.9,29.96,North,-999,0.0,0.0,86,0.00,,,-99.99,WeatherLink 5.5,2013-12-02 12:00:00,
2013-12-02 07:05:00,34.7,30.9,29.96,North,-999,0.0,0.0,86,0.00,,,-99.99,WeatherLink 5.5,2013-12-02 12:05:00,
2013-12-02 07:10:00,34.7,30.9,29.96,North,-999,0.0,0.0,86,0.00,,,-99.99,WeatherLink 5.5,2013-12-02 12:10:00,
2013-12-02 07:15:00,34.7,30.9,29.96,North,-999,0.0,0.0,86,0.00,,,-99.99,WeatherLink 5.5,2013-12-02 12:15:00,
2013-12-02 07:20:00,34.9,31.1,29.95,NW,315,0.0,2.0,86,0.00,,,-99.99,WeatherLink 5.5,2013-12-02 12:20:00,
2013-12-02 07:25:00,34.9,31.1,29.95,NW,315,0.0,1.0,86,0.00,,,-99.99,WeatherLink 5.5,2013-12-02 12:25:00,
2013-12-02 07:30:00,34.9,31.1,29.95,NW,315,0.0,1.0,86,0.00,,,-99.99,WeatherLink 5.5,2013-12-02 12:30:00,
2013-12-02 07:35:00,34.9,31.1,29.95,North,-999,0.0,0.0,86,0.00,,,-99.99,WeatherLink 5.5,2013-12-02 12:35:00,
2013-12-02 07:40:00,35.0,31.2,29.95,NW,315,0.0,2.0,86,0.00,,,-99.99,WeatherLink 5.5,2013-12-02 12:40:00,
2013-12-02 07:45:00,35.0,31.2,29.95,NW,315,0.0,2.0,86,0.00,,,-99.99,WeatherLink 5.5,2013-12-02 12:45:00,
2013-12-02 07:50:00,35.0,31.2,29.95,North,-999,0.0,0.0,86,0.00,,,-99.99,WeatherLink 5.5,2013-12-02 12:50:00,
2013-12-02 07:55:00,35.0,31.2,29.95,NW,315,0.0,4.0,86,0.00,,,-99.99,WeatherLink 5.5,2013-12-02 12:55:00,
2013-12-02 08:00:00,35.0,31.2,29.95,NW,315,0.0,4.0,86,0.00,,,-99.99,WeatherLink 5.5,2013-12-02 13:00:00,
2013-12-02 08:05:00,35.2,31.4,29.95,North,-999,0.0,0.0,86,0.00,,,-99.99,WeatherLink 5.5,2013-12-02 13:05:00,
2013-12-02 08:10:00,35.2,31.4,29.95,North,-999,0.0,0.0,86,0.00,,,-99.99,WeatherLink 5.5,2013-12-02 13:10:00,
2013-12-02 08:15:00,35.2,31.4,29.95,North,-999,0.0,0.0,86,0.00,,,-99.99,WeatherLink 5.5,2013-12-02 13:15:00,
2013-12-02 08:20:00,35.3,31.5,29.95,North,-999,0.0,0.0,86,0.00,,,-99.99,WeatherLink 5.5,2013-12-02 13:20:00,
2013-12-02 08:25:00,35.3,31.5,29.95,NW,315,0.0,2.0,86,0.00,,,-99.99,WeatherLink 5.5,2013-12-02 13:25:00,
2013-12-02 08:30:00,35.3,31.5,29.95,NW,315,0.0,2.0,86,0.00,,,-99.99,WeatherLink 5.5,2013-12-02 13:30:00,
2013-12-02 08:35:00,35.5,31.7,29.95,NW,315,1.0,2.0,86,0.00,,,-99.99,WeatherLink 5.5,2013-12-02 13:35:00,
2013-12-02 08:40:00,35.5,31.7,29.95,NW,315,0.0,1.0,86,0.00,,,-99.99,WeatherLink 5.5,2013-12-02 13:40:00,
2013-12-02 08:45:00,35.5,31.7,29.95,NW,315,0.0,1.0,86,0.00,,,-99.99,WeatherLink 5.5,2013-12-02 13:45:00,
2013-12-02 08:50:00,35.5,31.7,29.95,North,-999,0.0,0.0,86,0.00,,,-99.99,WeatherLink 5.5,2013-12-02 13:50:00,
2013-12-02 08:55:00,35.6,31.8,29.95,North,-999,0.0,0.0,86,0.00,,,-99.99,WeatherLink 5.5,2013-12-02 13:55:00,
2013-12-02 09:00:00,35.6,31.8,29.95,North,-999,0.0,0.0,86,0.00,,,-99.99,WeatherLink 5.5,2013-12-02 14:00:00,
2013-12-02 09:05:00,35.6,31.8,29.95,NW,315,1.0,4.0,86,0.00,,,-99.99,WeatherLink 5.5,2013-12-02 14:05:00,
2013-12-02 09:10:00,35.7,31.9,29.95,NW,315,0.0,1.0,86,0.00,,,-99.99,WeatherLink 5.5,2013-12-02 14:10:00,
2013-12-02 09:15:00,35.7,31.9,29.95,NW,315,0.0,1.0,86,0.00,,,-99.99,WeatherLink 5.5,2013-12-02 14:15:00,
2013-12-02 09:20:00,35.7,31.9,29.95,NW,315,0.0,2.0,86,0.00,,,-99.99,WeatherLink 5.5,2013-12-02 14:20:00,
2013-12-02 09:25:00,35.9,32.1,29.95,North,-999,0.0,0.0,86,0.00,,,-99.99,WeatherLink 5.5,2013-12-02 14:25:00,
2013-12-02 09:30:00,35.9,32.1,29.95,North,-999,0.0,0.0,86,0.00,,,-99.99,WeatherLink 5.5,2013-12-02 14:30:00,
2013-12-02 09:35:00,35.9,32.1,29.95,NW,315,0.0,2.0,86,0.00,,,-99.99,WeatherLink 5.5,2013-12-02 14:35:00,
2013-12-02 09:40:00,35.9,32.1,29.95,North,-999,0.0,0.0,86,0.00,,,-99.99,WeatherLink 5.5,2013-12-02 14:40:00,
2013-12-02 09:45:00,35.9,32.1,29.95,North,-999,0.0,0.0,86,0.00,,,-99.99,WeatherLink 5.5,2013-12-02 14:45:00,
2013-12-02 09:50:00,36.0,32.2,29.95,NW,315,0.0,1.0,86,0.00,,,-99.99,WeatherLink 5.5,2013-12-02 14:50:00,
2013-12-02 09:55:00,36.0,32.2,29.95,North,-999,0.0,0.0,86,0.00,,,-99.99,WeatherLink 5.5,2013-12-02 14:55:00,
2013-12-02 10:00:00,36.0,32.2,29.95,North,-999,0.0,0.0,86,0.00,,,-99.99,WeatherLink 5.5,2013-12-02 15:00:00,
2013-12-02 10:05:00,36.2,32.4,29.95,North,-999,0.0,0.0,86,0.00,,,-99.99,WeatherLink 5.5,2013-12-02 15:05:00,
2013-12-02 10:10:00,36.2,32.4,29.95,North,-999,0.0,0.0,86,0.00,,,-99.99,WeatherLink 5.5,2013-12-02 15:10:00,
2013-12-02 10:15:00,36.2,32.4,29.95,North,-999,0.0,0.0,86,0.00,,,-99.99,WeatherLink 5.5,2013-12-02 15:15:00,
2013-12-02 10:20:00,36.2,32.4,29.95,NW,315,0.0,2.0,86,0.00,,,-99.99,WeatherLink 5.5,2013-12-02 15:20:00,
2013-12-02 10:25:00,36.3,32.5,29.95,North,-999,0.0,0.0,86,0.00,,,-99.99,WeatherLink 5.5,2013-12-02 15:25:00,
2013-12-02 10:30:00,36.3,32.5,29.95,North,-999,0.0,0.0,86,0.00,,,-99.99,WeatherLink 5.5,2013-12-02 15:30:00,
2013-12-02 10:35:00,36.5,32.7,29.95,NW,315,0.0,1.0,86,0.00,,,-99.99,WeatherLink 5.5,2013-12-02 15:35:00,
2013-12-02 10:40:00,36.5,32.7,29.95,North,-999,0.0,0.0,86,0.00,,,-99.99,WeatherLink 5.5,2013-12-02 15:40:00,
2013-12-02 10:45:00,36.5,32.7,29.95,North,-999,0.0,0.0,86,0.00,,,-99.99,WeatherLink 5.5,2013-12-02 15:45:00,
2013-12-02 10:50:00,36.6,32.8,29.94,NW,315,1.0,4.0,86,0.00,,,-99.99,WeatherLink 5.5,2013-12-02 15:50:00,
2013-12-02 10:55:00,36.6,32.8,29.94,North,-999,0.0,0.0,86,0.00,,,-99.99,WeatherLink 5.5,2013-12-02 15:55:00,
2013-12-02 11:00:00,36.6,32.8,29.94,North,-999,0.0,0.0,86,0.00,,,-99.99,WeatherLink 5.5,2013-12-02 16:00:00,
2013-12-02 11:05:00,36.7,32.9,29.94,North,-999,0.0,0.0,86,0.00,,,-99.99,WeatherLink 5.5,2013-12-02 16:05:00,
2013-12-02 11:10:00,36.7,32.9,29.94,NW,315,1.0,2.0,86,0.00,,,-99.99,WeatherLink 5.5,2013-12-02 16:10:00,
2013-12-02 11:15:00,36.7,32.9,29.94,NW,315,1.0,2.0,86,0.00,,,-99.99,WeatherLink 5.5,2013-12-02 16:15:00,
2013-12-02 11:20:00,36.7,32.9,29.93,North,-999,0.0,0.0,86,0.00,,,-99.99,WeatherLink 5.5,2013-12-02 16:20:00,
2013-12-02 11:25:00,36.9,33.1,29.93,North,-999,0.0,0.0,86,0.00,,,-99.99,WeatherLink 5.5,2013-12-02 16:25:00,
2013-12-02 11:30:00,36.9,33.1,29.93,North,-999,0.0,0.0,86,0.00,,,-99.99,WeatherLink 5.5,2013-12-02 16:30:00,
2013-12-02 11:35:00,37.0,33.2,29.93,North,-999,0.0,0.0,86,0.00,,,-99.99,WeatherLink 5.5,2013-12-02 16:35:00,
2013-12-02 11:40:00,37.0,33.2,29.93,NW,315,0.0,1.0,86,0.00,,,-99.99,WeatherLink 5.5,2013-12-02 16:40:00,
2013-12-02 11:45:00,37.0,33.2,29.93,NW,315,0.0,1.0,86,0.00,,,-99.99,WeatherLink 5.5,2013-12-02 16:45:00,
2013-12-02 11:50:00,37.0,33.2,29.93,NW,315,0.0,2.0,86,0.00,,,-99.99,WeatherLink 5.5,2013-12-02 16:50:00,
2013-12-02 11:55:00,37.0,33.2,29.93,WNW,292,1.0,4.0,86,0.00,,,-99.99,WeatherLink 5.5,2013-12-02 16:55:00,
2013-12-02 12:00:00,37.0,33.2,29.93,WNW,292,1.0,4.0,86,0.00,,,-99.99,WeatherLink 5.5,2013-12-02 17:00:00,
2013-12-02 12:05:00,36.9,33.1,29.93,North,-999,0.0,0.0,86,0.00,,,-99.99,WeatherLink 5.5,2013-12-02 17:05:00,
2013-12-02 12:10:00,37.0,33.2,29.93,WNW,292,0.0,1.0,86,0.00,,,-99.99,WeatherLink 5.5,2013-12-02 17:10:00,
2013-12-02 12:15:00,37.0,33.2,29.93,WNW,292,0.0,1.0,86,0.00,,,-99.99,WeatherLink 5.5,2013-12-02 17:15:00,
2013-12-02 12:20:00,36.9,33.1,29.93,North,-999,0.0,0.0,86,0.00,,,-99.99,WeatherLink 5.5,2013-12-02 17:20:00,
2013-12-02 12:25:00,37.0,33.2,29.93,North,-999,0.0,0.0,86,0.00,,,-99.99,WeatherLink 5.5,2013-12-02 17:25:00,
2013-12-02 12:30:00,37.0,33.2,29.93,North,-999,0.0,0.0,86,0.00,,,-99.99,WeatherLink 5.5,2013-12-02 17:30:00,
2013-12-02 12:35:00,37.0,33.2,29.92,WNW,292,0.0,1.0,86,0.00,,,-99.99,WeatherLink 5.5,2013-12-02 17:35:00,
2013-12-02 12:40:00,37.0,33.2,29.92,North,-999,0.0,0.0,86,0.00,,,-99.99,WeatherLink 5.5,2013-12-02 17:40:00,
2013-12-02 12:45:00,37.0,33.2,29.92,North,-999,0.0,0.0,86,0.00,,,-99.99,WeatherLink 5.5,2013-12-02 17:45:00,
2013-12-02 12:50:00,37.2,33.4,29.92,WNW,292,0.0,1.0,86,0.00,,,-99.99,WeatherLink 5.5,2013-12-02 17:50:00,
2013-12-02 12:55:00,37.2,33.4,29.92,WNW,292,0.0,4.0,86,0.00,,,-99.99,WeatherLink 5.5,2013-12-02 17:55:00,
2013-12-02 13:00:00,37.2,33.4,29.92,WNW,292,0.0,4.0,86,0.00,,,-99.99,WeatherLink 5.5,2013-12-02 18:00:00,
2013-12-02 13:05:00,37.2,33.4,29.92,North,-999,0.0,0.0,86,0.00,,,-99.99,WeatherLink 5.5,2013-12-02 18:05:00,
2013-12-02 13:10:00,37.3,33.5,29.92,North,-999,0.0,0.0,86,0.00,,,-99.99,WeatherLink 5.5,2013-12-02 18:10:00,
2013-12-02 13:15:00,37.3,33.5,29.92,North,-999,0.0,0.0,86,0.00,,,-99.99,WeatherLink 5.5,2013-12-02 18:15:00,
2013-12-02 13:20:00,37.5,33.7,29.92,North,-999,0.0,0.0,86,0.00,,,-99.99,WeatherLink 5.5,2013-12-02 18:20:00,
2013-12-02 13:25:00,37.6,33.8,29.92,North,-999,0.0,0.0,86,0.00,,,-99.99,WeatherLink 5.5,2013-12-02 18:25:00,
2013-12-02 13:30:00,37.6,33.8,29.92,North,-999,0.0,0.0,86,0.00,,,-99.99,WeatherLink 5.5,2013-12-02 18:30:00,
2013-12-02 13:35:00,37.6,33.8,29.91,North,-999,0.0,0.0,86,0.00,,,-99.99,WeatherLink 5.5,2013-12-02 18:35:00,
2013-12-02 13:40:00,37.6,33.8,29.91,North,-999,0.0,0.0,86,0.00,,,-99.99,WeatherLink 5.5,2013-12-02 18:40:00,
2013-12-02 13:45:00,37.6,33.8,29.91,North,-999,0.0,0.0,86,0.00,,,-99.99,WeatherLink 5.5,2013-12-02 18:45:00,
2013-12-02 13:50:00,37.6,33.8,29.90,North,-999,0.0,0.0,86,0.00,,,-99.99,WeatherLink 5.5,2013-12-02 18:50:00,
2013-12-02 13:55:00,37.7,33.9,29.90,WNW,292,0.0,1.0,86,0.00,,,-99.99,WeatherLink 5.5,2013-12-02 18:55:00,
2013-12-02 14:00:00,37.7,33.9,29.90,WNW,292,0.0,1.0,86,0.00,,,-99.99,WeatherLink 5.5,2013-12-02 19:00:00,
2013-12-02 14:05:00,37.9,34.1,29.90,North,-999,0.0,0.0,86,0.00,,,-99.99,WeatherLink 5.5,2013-12-02 19:05:00,
2013-12-02 14:10:00,37.9,34.1,29.90,North,-999,0.0,0.0,86,0.00,,,-99.99,WeatherLink 5.5,2013-12-02 19:10:00,
2013-12-02 14:15:00,37.9,34.1,29.90,North,-999,0.0,0.0,86,0.00,,,-99.99,WeatherLink 5.5,2013-12-02 19:15:00,
2013-12-02 14:20:00,38.0,34.2,29.89,North,-999,0.0,0.0,86,0.00,,,-99.99,WeatherLink 5.5,2013-12-02 19:20:00,
2013-12-02 14:25:00,38.0,34.2,29.89,North,-999,0.0,0.0,86,0.00,,,-99.99,WeatherLink 5.5,2013-12-02 19:25:00,
2013-12-02 14:30:00,38.0,34.2,29.89,North,-999,0.0,0.0,86,0.00,,,-99.99,WeatherLink 5.5,2013-12-02 19:30:00,
2013-12-02 14:35:00,38.0,34.2,29.89,North,-999,0.0,0.0,86,0.00,,,-99.99,WeatherLink 5.5,2013-12-02 19:35:00,
2013-12-02 14:40:00,38.0,34.2,29.89,North,-999,0.0,0.0,86,0.00,,,-99.99,WeatherLink 5.5,2013-12-02 19:40:00,
2013-12-02 14:45:00,38.0,34.2,29.89,North,-999,0.0,0.0,86,0.00,,,-99.99,WeatherLink 5.5,2013-12-02 19:45:00,
2013-12-02 14:50:00,38.0,33.9,29.89,North,-999,0.0,0.0,85,0.00,,,-99.99,WeatherLink 5.5,2013-12-02 19:50:00,
2013-12-02 14:55:00,38.0,33.9,29.89,North,-999,0.0,0.0,85,0.00,,,-99.99,WeatherLink 5.5,2013-12-02 19:55:00,
2013-12-02 15:00:00,38.0,33.9,29.89,North,-999,0.0,0.0,85,0.00,,,-99.99,WeatherLink 5.5,2013-12-02 20:00:00,
2013-12-02 15:05:00,38.2,34.1,29.89,North,-999,0.0,0.0,85,0.00,,,-99.99,WeatherLink 5.5,2013-12-02 20:05:00,
2013-12-02 15:10:00,38.2,34.1,29.89,North,-999,0.0,0.0,85,0.00,,,-99.99,WeatherLink 5.5,2013-12-02 20:10:00,
2013-12-02 15:15:00,38.2,34.1,29.89,North,-999,0.0,0.0,85,0.00,,,-99.99,WeatherLink 5.5,2013-12-02 20:15:00,
2013-12-02 15:20:00,38.2,34.1,29.89,North,-999,0.0,0.0,85,0.00,,,-99.99,WeatherLink 5.5,2013-12-02 20:20:00,
2013-12-02 15:25:00,38.0,33.9,29.89,North,-999,0.0,0.0,85,0.00,,,-99.99,WeatherLink 5.5,2013-12-02 20:25:00,
2013-12-02 15:30:00,38.0,33.9,29.89,North,-999,0.0,0.0,85,0.00,,,-99.99,WeatherLink 5.5,2013-12-02 20:30:00,
2013-12-02 15:35:00,38.0,33.9,29.89,North,-999,0.0,0.0,85,0.00,,,-99.99,WeatherLink 5.5,2013-12-02 20:35:00,
2013-12-02 15:40:00,38.0,33.9,29.89,North,-999,0.0,0.0,85,0.00,,,-99.99,WeatherLink 5.5,2013-12-02 20:40:00,
2013-12-02 15:45:00,38.0,33.9,29.89,North,-999,0.0,0.0,85,0.00,,,-99.99,WeatherLink 5.5,2013-12-02 20:45:00,
2013-12-02 15:50:00,38.0,33.9,29.90,North,-999,0.0,0.0,85,0.00,,,-99.99,WeatherLink 5.5,2013-12-02 20:50:00,
2013-12-02 15:55:00,38.0,33.9,29.90,North,-999,0.0,0.0,85,0.00,,,-99.99,WeatherLink 5.5,2013-12-02 20:55:00,
2013-12-02 16:00:00,38.0,33.9,29.90,North,-999,0.0,0.0,85,0.00,,,-99.99,WeatherLink 5.5,2013-12-02 21:00:00,
2013-12-02 16:05:00,37.9,33.8,29.90,North,-999,0.0,0.0,85,0.00,,,-99.99,WeatherLink 5.5,2013-12-02 21:05:00,
2013-12-02 16:10:00,37.9,33.8,29.90,North,-999,0.0,0.0,85,0.00,,,-99.99,WeatherLink 5.5,2013-12-02 21:10:00,
2013-12-02 16:15:00,37.9,33.8,29.90,North,-999,0.0,0.0,85,0.00,,,-99.99,WeatherLink 5.5,2013-12-02 21:15:00,
2013-12-02 16:20:00,37.9,33.8,29.90,North,-999,0.0,0.0,85,0.00,,,-99.99,WeatherLink 5.5,2013-12-02 21:20:00,
2013-12-02 16:25:00,37.9,33.8,29.90,North,-999,0.0,0.0,85,0.00,,,-99.99,WeatherLink 5.5,2013-12-02 21:25:00,
2013-12-02 16:30:00,37.9,33.8,29.90,North,-999,0.0,0.0,85,0.00,,,-99.99,WeatherLink 5.5,2013-12-02 21:30:00,
2013-12-02 16:35:00,37.9,33.8,29.90,North,-999,0.0,0.0,85,0.00,,,-99.99,WeatherLink 5.5,2013-12-02 21:35:00,
2013-12-02 16:40:00,37.7,33.6,29.90,North,-999,0.0,0.0,85,0.00,,,-99.99,WeatherLink 5.5,2013-12-02 21:40:00,
2013-12-02 16:45:00,37.7,33.6,29.90,North,-999,0.0,0.0,85,0.00,,,-99.99,WeatherLink 5.5,2013-12-02 21:45:00,
2013-12-02 16:50:00,37.6,33.5,29.90,North,-999,0.0,0.0,85,0.00,,,-99.99,WeatherLink 5.5,2013-12-02 21:50:00,
2013-12-02 16:55:00,37.6,33.5,29.90,North,-999,0.0,0.0,85,0.00,,,-99.99,WeatherLink 5.5,2013-12-02 21:55:00,
2013-12-02 17:00:00,37.6,33.5,29.90,North,-999,0.0,0.0,85,0.00,,,-99.99,WeatherLink 5.5,2013-12-02 22:00:00,
2013-12-02 17:05:00,37.5,33.4,29.91,North,-999,0.0,0.0,85,0.00,,,-99.99,WeatherLink 5.5,2013-12-02 22:05:00,
2013-12-02 17:10:00,37.5,33.4,29.91,North,-999,0.0,0.0,85,0.00,,,-99.99,WeatherLink 5.5,2013-12-02 22:10:00,
2013-12-02 17:15:00,37.5,33.4,29.91,North,-999,0.0,0.0,85,0.00,,,-99.99,WeatherLink 5.5,2013-12-02 22:15:00,
2013-12-02 17:20:00,37.5,33.4,29.91,North,-999,0.0,0.0,85,0.00,,,-99.99,WeatherLink 5.5,2013-12-02 22:20:00,
2013-12-02 17:25:00,37.5,33.4,29.91,North,-999,0.0,0.0,85,0.00,,,-99.99,WeatherLink 5.5,2013-12-02 22:25:00,
2013-12-02 17:30:00,37.5,33.4,29.91,North,-999,0.0,0.0,85,0.00,,,-99.99,WeatherLink 5.5,2013-12-02 22:30:00,
2013-12-02 17:35:00,37.3,33.2,29.91,North,-999,0.0,0.0,85,0.00,,,-99.99,WeatherLink 5.5,2013-12-02 22:35:00,
2013-12-02 17:40:00,37.3,33.2,29.91,North,-999,0.0,0.0,85,0.00,,,-99.99,WeatherLink 5.5,2013-12-02 22:40:00,
2013-12-02 17:45:00,37.3,33.2,29.91,North,-999,0.0,0.0,85,0.00,,,-99.99,WeatherLink 5.5,2013-12-02 22:45:00,
2013-12-02 17:50:00,37.2,33.1,29.90,North,-999,0.0,0.0,85,0.00,,,-99.99,WeatherLink 5.5,2013-12-02 22:50:00,
2013-12-02 17:55:00,37.0,32.9,29.90,North,-999,0.0,0.0,85,0.00,,,-99.99,WeatherLink 5.5,2013-12-02 22:55:00,
2013-12-02 18:00:00,37.0,32.9,29.90,North,-999,0.0,0.0,85,0.00,,,-99.99,WeatherLink 5.5,2013-12-02 23:00:00,
2013-12-02 18:05:00,36.9,32.8,29.91,North,-999,0.0,0.0,85,0.00,,,-99.99,WeatherLink 5.5,2013-12-02 23:05:00,
2013-12-02 18:10:00,36.9,32.8,29.91,North,-999,0.0,0.0,85,0.00,,,-99.99,WeatherLink 5.5,2013-12-02 23:10:00,
2013-12-02 18:15:00,36.7,32.6,29.90,North,-999,0.0,0.0,85,0.00,,,-99.99,WeatherLink 5.5,2013-12-02 23:15:00,
2013-12-02 18:20:00,36.6,32.5,29.90,North,-999,0.0,0.0,85,0.00,,,-99.99,WeatherLink 5.5,2013-12-02 23:20:00,
2013-12-02 18:25:00,36.5,32.4,29.90,North,-999,0.0,0.0,85,0.00,,,-99.99,WeatherLink 5.5,2013-12-02 23:25:00,
2013-12-02 18:30:00,36.5,32.4,29.90,North,-999,0.0,0.0,85,0.00,,,-99.99,WeatherLink 5.5,2013-12-02 23:30:00,
2013-12-02 18:35:00,36.2,32.1,29.91,North,-999,0.0,0.0,85,0.00,,,-99.99,WeatherLink 5.5,2013-12-02 23:35:00,
2013-12-02 18:40:00,35.9,31.8,29.91,North,-999,0.0,0.0,85,0.00,,,-99.99,WeatherLink 5.5,2013-12-02 23:40:00,
2013-12-02 18:45:00,35.9,31.8,29.91,North,-999,0.0,0.0,85,0.00,,,-99.99,WeatherLink 5.5,2013-12-02 23:45:00,
2013-12-02 18:50:00,35.6,31.5,29.91,North,-999,0.0,0.0,85,0.00,,,-99.99,WeatherLink 5.5,2013-12-02 23:50:00,
2013-12-02 18:55:00,35.5,31.4,29.91,North,-999,0.0,0.0,85,0.00,,,-99.99,WeatherLink 5.5,2013-12-02 23:55:00,
2013-12-02 19:00:00,35.5,31.4,29.91,North,-999,0.0,0.0,85,0.00,,,-99.99,WeatherLink 5.5,2013-12-03 00:00:00,
2013-12-02 19:05:00,35.0,30.9,29.91,North,-999,0.0,0.0,85,0.00,,,-99.99,WeatherLink 5.5,2013-12-03 00:05:00,
2013-12-02 19:10:00,34.9,30.8,29.91,North,-999,0.0,0.0,85,0.00,,,-99.99,WeatherLink 5.5,2013-12-03 00:10:00,
2013-12-02 19:15:00,34.9,30.8,29.91,North,-999,0.0,0.0,85,0.00,,,-99.99,WeatherLink 5.5,2013-12-03 00:15:00,
2013-12-02 19:20:00,34.7,30.7,29.91,North,-999,0.0,0.0,85,0.00,,,-99.99,WeatherLink 5.5,2013-12-03 00:20:00,
2013-12-02 19:25:00,34.7,30.7,29.91,North,-999,0.0,0.0,85,0.00,,,-99.99,WeatherLink 5.5,2013-12-03 00:25:00,
2013-12-02 19:30:00,34.7,30.7,29.91,North,-999,0.0,0.0,85,0.00,,,-99.99,WeatherLink 5.5,2013-12-03 00:30:00,
2013-12-02 19:35:00,34.7,30.7,29.91,North,-999,0.0,0.0,85,0.00,,,-99.99,WeatherLink 5.5,2013-12-03 00:35:00,
2013-12-02 19:40:00,34.7,30.7,29.91,North,-999,0.0,0.0,85,0.00,,,-99.99,WeatherLink 5.5,2013-12-03 00:40:00,
2013-12-02 19:45:00,34.7,30.7,29.91,North,-999,0.0,0.0,85,0.00,,,-99.99,WeatherLink 5.5,2013-12-03 00:45:00,
2013-12-02 19:50:00,34.7,30.7,29.91,North,-999,0.0,0.0,85,0.00,,,-99.99,WeatherLink 5.5,2013-12-03 00:50:00,
2013-12-02 19:55:00,34.7,30.7,29.91,North,-999,0.0,0.0,85,0.00,,,-99.99,WeatherLink 5.5,2013-12-03 00:55:00,
2013-12-02 20:00:00,34.7,30.7,29.91,North,-999,0.0,0.0,85,0.00,,,-99.99,WeatherLink 5.5,2013-12-03 01:00:00,
2013-12-02 20:05:00,34.9,30.8,29.90,North,-999,0.0,0.0,85,0.00,,,-99.99,WeatherLink 5.5,2013-12-03 01:05:00,
2013-12-02 20:10:00,35.0,30.9,29.90,North,-999,0.0,0.0,85,0.00,,,-99.99,WeatherLink 5.5,2013-12-03 01:10:00,
2013-12-02 20:15:00,35.0,30.9,29.90,North,-999,0.0,0.0,85,0.00,,,-99.99,WeatherLink 5.5,2013-12-03 01:15:00,
2013-12-02 20:20:00,35.0,30.9,29.90,North,-999,0.0,0.0,85,0.00,,,-99.99,WeatherLink 5.5,2013-12-03 01:20:00,
2013-12-02 20:25:00,34.9,30.8,29.90,North,-999,0.0,0.0,85,0.00,,,-99.99,WeatherLink 5.5,2013-12-03 01:25:00,
2013-12-02 20:30:00,34.9,30.8,29.90,North,-999,0.0,0.0,85,0.00,,,-99.99,WeatherLink 5.5,2013-12-03 01:30:00,
2013-12-02 20:35:00,34.7,30.7,29.90,North,-999,0.0,0.0,85,0.00,,,-99.99,WeatherLink 5.5,2013-12-03 01:35:00,
2013-12-02 20:40:00,34.7,30.7,29.90,North,-999,0.0,0.0,85,0.00,,,-99.99,WeatherLink 5.5,2013-12-03 01:40:00,
2013-12-02 20:45:00,34.7,30.7,29.90,North,-999,0.0,0.0,85,0.00,,,-99.99,WeatherLink 5.5,2013-12-03 01:45:00,
2013-12-02 20:50:00,34.7,30.7,29.90,North,-999,0.0,0.0,85,0.00,,,-99.99,WeatherLink 5.5,2013-12-03 01:50:00,
2013-12-02 20:55:00,34.7,30.7,29.90,North,-999,0.0,0.0,85,0.00,,,-99.99,WeatherLink 5.5,2013-12-03 01:55:00,
2013-12-02 21:00:00,34.7,30.7,29.90,North,-999,0.0,0.0,85,0.00,,,-99.99,WeatherLink 5.5,2013-12-03 02:00:00,
2013-12-02 21:05:00,34.7,30.7,29.91,North,-999,0.0,0.0,85,0.00,,,-99.99,WeatherLink 5.5,2013-12-03 02:05:00,
2013-12-02 21:10:00,34.7,30.7,29.91,North,-999,0.0,0.0,85,0.00,,,-99.99,WeatherLink 5.5,2013-12-03 02:10:00,
2013-12-02 21:15:00,34.7,30.7,29.91,North,-999,0.0,0.0,85,0.00,,,-99.99,WeatherLink 5.5,2013-12-03 02:15:00,
2013-12-02 21:20:00,34.9,30.8,29.91,North,-999,0.0,0.0,85,0.00,,,-99.99,WeatherLink 5.5,2013-12-03 02:20:00,
2013-12-02 21:25:00,34.9,30.8,29.91,North,-999,0.0,0.0,85,0.00,,,-99.99,WeatherLink 5.5,2013-12-03 02:25:00,
2013-12-02 21:30:00,34.9,30.8,29.91,North,-999,0.0,0.0,85,0.00,,,-99.99,WeatherLink 5.5,2013-12-03 02:30:00,
2013-12-02 21:35:00,35.0,31.2,29.91,North,-999,0.0,0.0,86,0.00,,,-99.99,WeatherLink 5.5,2013-12-03 02:35:00,
2013-12-02 21:40:00,35.2,31.4,29.91,North,-999,0.0,0.0,86,0.00,,,-99.99,WeatherLink 5.5,2013-12-03 02:40:00,
2013-12-02 21:45:00,35.2,31.4,29.91,North,-999,0.0,0.0,86,0.00,,,-99.99,WeatherLink 5.5,2013-12-03 02:45:00,
2013-12-02 21:50:00,35.2,31.1,29.92,North,-999,0.0,0.0,85,0.00,,,-99.99,WeatherLink 5.5,2013-12-03 02:50:00,
2013-12-02 21:55:00,35.2,31.4,29.92,North,-999,0.0,0.0,86,0.00,,,-99.99,WeatherLink 5.5,2013-12-03 02:55:00,
2013-12-02 22:00:00,35.2,31.4,29.92,North,-999,0.0,0.0,86,0.00,,,-99.99,WeatherLink 5.5,2013-12-03 03:00:00,
2013-12-02 22:05:00,35.2,31.1,29.91,North,-999,0.0,0.0,85,0.00,,,-99.99,WeatherLink 5.5,2013-12-03 03:05:00,
2013-12-02 22:10:00,35.2,31.4,29.91,North,-999,0.0,0.0,86,0.00,,,-99.99,WeatherLink 5.5,2013-12-03 03:10:00,
2013-12-02 22:15:00,35.2,31.4,29.91,North,-999,0.0,0.0,86,0.00,,,-99.99,WeatherLink 5.5,2013-12-03 03:15:00,
2013-12-02 22:20:00,35.2,31.4,29.91,North,-999,0.0,0.0,86,0.00,,,-99.99,WeatherLink 5.5,2013-12-03 03:20:00,
2013-12-02 22:25:00,35.3,31.5,29.91,North,-999,0.0,0.0,86,0.00,,,-99.99,WeatherLink 5.5,2013-12-03 03:25:00,
2013-12-02 22:30:00,35.3,31.5,29.91,North,-999,0.0,0.0,86,0.00,,,-99.99,WeatherLink 5.5,2013-12-03 03:30:00,
2013-12-02 22:35:00,35.2,31.4,29.91,North,-999,0.0,0.0,86,0.00,,,-99.99,WeatherLink 5.5,2013-12-03 03:35:00,
2013-12-02 22:40:00,35.3,31.5,29.91,North,-999,0.0,0.0,86,0.00,,,-99.99,WeatherLink 5.5,2013-12-03 03:40:00,
2013-12-02 22:45:00,35.3,31.5,29.91,North,-999,0.0,0.0,86,0.00,,,-99.99,WeatherLink 5.5,2013-12-03 03:45:00,
2013-12-02 22:50:00,35.5,31.7,29.90,North,-999,0.0,0.0,86,0.00,,,-99.99,WeatherLink 5.5,2013-12-03 03:50:00,
2013-12-02 22:55:00,35.5,31.7,29.90,North,-999,0.0,0.0,86,0.00,,,-99.99,WeatherLink 5.5,2013-12-03 03:55:00,
2013-12-02 23:00:00,35.5,31.7,29.90,North,-999,0.0,0.0,86,0.00,,,-99.99,WeatherLink 5.5,2013-12-03 04:00:00,
2013-12-02 23:05:00,35.5,31.7,29.90,North,-999,0.0,0.0,86,0.00,,,-99.99,WeatherLink 5.5,2013-12-03 04:05:00,
2013-12-02 23:10:00,35.6,31.8,29.90,North,-999,0.0,0.0,86,0.00,,,-99.99,WeatherLink 5.5,2013-12-03 04:10:00,
2013-12-02 23:15:00,35.6,31.8,29.90,North,-999,0.0,0.0,86,0.00,,,-99.99,WeatherLink 5.5,2013-12-03 04:15:00,
2013-12-02 23:20:00,35.6,31.8,29.90,North,-999,0.0,0.0,86,0.00,,,-99.99,WeatherLink 5.5,2013-12-03 04:20:00,
2013-12-02 23:25:00,35.6,31.8,29.90,North,-999,0.0,0.0,86,0.00,,,-99.99,WeatherLink 5.5,2013-12-03 04:25:00,
2013-12-02 23:30:00,35.6,31.8,29.90,North,-999,0.0,0.0,86,0.00,,,-99.99,WeatherLink 5.5,2013-12-03 04:30:00,
2013-12-02 23:35:00,35.7,31.9,29.90,North,-999,0.0,0.0,86,0.00,,,-99.99,WeatherLink 5.5,2013-12-03 04:35:00,
2013-12-02 23:40:00,35.7,31.9,29.90,North,-999,0.0,0.0,86,0.00,,,-99.99,WeatherLink 5.5,2013-12-03 04:40:00,
2013-12-02 23:45:00,35.7,31.9,29.90,North,-999,0.0,0.0,86,0.00,,,-99.99,WeatherLink 5.5,2013-12-03 04:45:00,
2013-12-02 23:50:00,35.7,31.9,29.90,North,-999,0.0,0.0,86,0.00,,,-99.99,WeatherLink 5.5,2013-12-03 04:50:00,
2013-12-02 23:55:00,35.7,31.9,29.90,North,-999,0.0,0.0,86,0.00,,,-99.99,WeatherLink 5.5,2013-12-03 04:55:00,